Tor Futura — OZZE2 — position and weather

sailwx.info

Track history (hours):
 
Tides and Currents Weather Stations Pressure Air Temp Water Temp Dewpoint Dewpoint Depression Visibility Wind Speed Wind Dir Waves Ship Positions

Tor Futura

Last reported at 2017-Oct-20 06:05 UTC. Time now 2017-Oct-20 12:19 UTC.
Position N 56°11' E 012°11'.

Length 183.1 m; beam 25.2 m; draft 7.8 m.

Type: Ship. MMSI: 219927000.

Date/timePositionNaut miles runAvg speedWind from/ knotsBaromVisibWave heightAir tempDewpointWater temp
2017-Oct-20 06:05N 56°11' E 012°11'418.5
2017-Oct-20 05:51N 56°11' E 012°19'719.8
2017-Oct-20 05:30N 56°08' E 012°30'1019.5
2017-Oct-20 05:00N 56°01' E 012°41'1019.4
2017-Oct-20 04:30N 55°51' E 012°44'1019.2
2017-Oct-20 04:01N 55°42' E 012°41'815.7
2017-Oct-20 03:30N 55°34' E 012°42'816.3
2017-Oct-20 03:01N 55°26' E 012°42'816.3
2017-Oct-20 02:30N 55°18' E 012°43'918.3
2017-Oct-20 02:00N 55°16' E 012°59'1019.1
2017-Oct-20 01:28N 55°16' E 013°17'919.5
2017-Oct-20 01:00N 55°15' E 013°33'1019.2
2017-Oct-20 00:30N 55°14' E 013°50'1019.2
2017-Oct-20 00:00N 55°14' E 014°07'917.6
2017-Oct-19 23:30N 55°17' E 014°21'917.4
2017-Oct-19 23:00N 55°23' E 014°32'918.3
2017-Oct-19 22:30N 55°27' E 014°47'919.1
2017-Oct-19 22:00N 55°27' E 015°03'1019.2
2017-Oct-19 21:30N 55°28' E 015°20'1319.2
2017-Oct-19 20:48N 55°28' E 015°44'719.2
2017-Oct-19 20:26N 55°29' E 015°57'919.2
2017-Oct-19 19:57N 55°29' E 016°13'919.4
2017-Oct-19 19:30N 55°29' E 016°28'1019.4
2017-Oct-19 19:00N 55°30' E 016°45'1019.5
2017-Oct-19 18:30N 55°31' E 017°02'1019.3
2017-Oct-19 18:00N 55°31' E 017°20'1719.3
2017-Oct-19 17:08N 55°33' E 017°49'2519.3
2017-Oct-19 15:51N 55°36' E 018°32'2119.5
2017-Oct-19 14:45N 55°38' E 019°10'109 4.4
2017-Oct-18 13:58N 55°27' E 015°58'817.3
2017-Oct-18 13:30N 55°26' E 015°44'917.2
2017-Oct-18 13:00N 55°25' E 015°29'917.1
2017-Oct-18 12:30N 55°25' E 015°13'917.2
2017-Oct-18 12:00N 55°24' E 014°58'918.7
2017-Oct-18 11:30N 55°23' E 014°42'918.6
2017-Oct-18 11:00N 55°17' E 014°30'918.1
2017-Oct-18 10:30N 55°11' E 014°18'2418.2
2017-Oct-18 09:11N 55°12' E 013°35'618.1
2017-Oct-18 08:50N 55°13' E 013°25'618.1
2017-Oct-18 08:30N 55°14' E 013°14'918.2
2017-Oct-18 08:00N 55°15' E 012°58'918.1
2017-Oct-18 07:30N 55°17' E 012°43'714.1
2017-Oct-18 07:00N 55°24' E 012°40'815.7
2017-Oct-18 06:30N 55°32' E 012°42'612.2
2017-Oct-18 06:01N 55°38' E 012°42'611.4
2017-Oct-18 05:30N 55°43' E 012°37'1 2.0
2017-Oct-18 04:59N 55°42' E 012°36'0 0.0
2017-Oct-18 04:29N 55°42' E 012°36'0 0.0
2017-Oct-18 04:00N 55°42' E 012°36'1 2.0
2017-Oct-18 03:30N 55°43' E 012°37'511.0
2017-Oct-18 03:01N 55°47' E 012°42'714.8
2017-Oct-18 02:31N 55°55' E 012°39'714.5
2017-Oct-18 02:01N 56°02' E 012°39'713.9
2017-Oct-18 01:31N 56°07' E 012°31'99 4.8
2017-Oct-17 04:59N 55°34' E 009°45'0 0.0
2017-Oct-17 04:29N 55°34' E 009°45'0 0.0
2017-Oct-17 04:00N 55°34' E 009°45'5 6.2
2017-Oct-17 03:10N 55°35' E 009°53'214.1
2017-Oct-17 02:59N 55°37' E 009°57'914.2
2017-Oct-17 02:23N 55°41' E 010°10'713.9
2017-Oct-17 01:55N 55°43' E 010°21'4113.1
2017-Oct-16 22:49N 56°08' E 011°18'1414.0
2017-Oct-16 21:49N 56°09' E 011°43'514.1
2017-Oct-16 21:26N 56°10' E 011°53'614.0
2017-Oct-16 21:00N 56°11' E 012°03'714.0
2017-Oct-16 20:30N 56°11' E 012°16'815.4
2017-Oct-16 19:59N 56°08' E 012°30'714.6
2017-Oct-16 19:30N 56°04' E 012°39'713.1
2017-Oct-16 19:01N 55°57' E 012°43'714.2
2017-Oct-16 18:31N 55°50' E 012°43'713.7
2017-Oct-16 18:01N 55°44' E 012°39'3 5.4
2017-Oct-16 17:31N 55°42' E 012°36'0 0.0
2017-Oct-16 16:59N 55°42' E 012°36'0 0.0
2017-Oct-16 16:29N 55°42' E 012°36'0 0.0
2017-Oct-16 16:00N 55°42' E 012°36'1 2.4
2017-Oct-16 15:30N 55°43' E 012°38'510.8
2017-Oct-16 15:00N 55°38' E 012°42'1110.9
2017-Oct-16 14:00N 55°27' E 012°42'611.6
2017-Oct-16 13:30N 55°21' E 012°40'5 9.6
2017-Oct-16 13:00N 55°18' E 012°46'611.5
2017-Oct-16 12:30N 55°16' E 012°55'611.2
2017-Oct-16 12:00N 55°16' E 013°05'815.5
2017-Oct-16 11:30N 55°16' E 013°19'612.5
2017-Oct-16 11:00N 55°15' E 013°30'612.1
2017-Oct-16 10:31N 55°15' E 013°40'612.2
2017-Oct-16 10:00N 55°14' E 013°51'712.4
2017-Oct-16 09:29N 55°14' E 014°02'612.3
2017-Oct-16 08:58N 55°14' E 014°13'611.5
2017-Oct-16 08:27N 55°17' E 014°22'612.3
2017-Oct-16 07:59N 55°21' E 014°29'612.2
2017-Oct-16 07:30N 55°25' E 014°36'612.4
2017-Oct-16 07:00N 55°27' E 014°47'612.5
2017-Oct-16 06:30N 55°27' E 014°58'612.5
2017-Oct-16 06:00N 55°27' E 015°09'612.9
2017-Oct-16 05:30N 55°28' E 015°20'812.8
2017-Oct-16 04:55N 55°28' E 015°33'513.1
2017-Oct-16 04:30N 55°28' E 015°43'712.9
2017-Oct-16 03:57N 55°29' E 015°55'612.4
2017-Oct-16 03:30N 55°29' E 016°05'611.5
2017-Oct-16 02:59N 55°29' E 016°16'611.4
2017-Oct-16 02:30N 55°30' E 016°25'611.4
2017-Oct-16 01:57N 55°30' E 016°37'611.4
2017-Oct-16 01:27N 55°30' E 016°47'2911.9
2017-Oct-15 23:02N 55°32' E 017°37'212.1
2017-Oct-15 22:51N 55°33' E 017°41'3012.0
2017-Oct-15 20:20N 55°36' E 018°34'712.2
2017-Oct-15 19:47N 55°36' E 018°46'2112.2
2017-Oct-15 18:06N 55°38' E 019°22'412.3
2017-Oct-15 17:48N 55°39' E 019°29'412.3
2017-Oct-15 17:30N 55°39' E 019°35'612.3
2017-Oct-15 17:01N 55°40' E 019°46'712.7
2017-Oct-15 16:27N 55°41' E 019°58'912.7
2017-Oct-15 15:46N 55°42' E 020°13'159 6.5
2017-Oct-14 15:29N 55°26' E 015°34'715.0
2017-Oct-14 15:00N 55°25' E 015°22'714.9
2017-Oct-14 14:30N 55°24' E 015°09'714.9
2017-Oct-14 14:00N 55°24' E 014°56'714.9
2017-Oct-14 13:30N 55°23' E 014°43'714.5
2017-Oct-14 13:00N 55°18' E 014°33'815.1
2017-Oct-14 12:30N 55°13' E 014°23'814.6
2017-Oct-14 11:57N 55°10' E 014°10'2115.1
2017-Oct-14 10:33N 55°12' E 013°33'917.0
2017-Oct-14 10:02N 55°14' E 013°18'016.7
2017-Oct-14 10:00N 55°14' E 013°17'917.1
2017-Oct-14 09:30N 55°14' E 013°02'916.9
2017-Oct-14 09:00N 55°16' E 012°47'714.2
2017-Oct-14 08:30N 55°21' E 012°38'816.1
2017-Oct-14 08:00N 55°29' E 012°41'714.4
2017-Oct-14 07:30N 55°36' E 012°42'612.8
2017-Oct-14 07:00N 55°42' E 012°38'1 2.6
2017-Oct-14 06:30N 55°42' E 012°36'0 0.0
2017-Oct-14 06:00N 55°42' E 012°36'0 0.0
2017-Oct-14 05:30N 55°42' E 012°36'0 0.0
2017-Oct-14 05:00N 55°42' E 012°36'1 1.4
2017-Oct-14 04:30N 55°43' E 012°37'612.5
2017-Oct-14 04:00N 55°48' E 012°42'815.6
2017-Oct-14 03:31N 55°56' E 012°39'815.7
2017-Oct-14 03:01N 56°03' E 012°38'918.7
2017-Oct-14 02:30N 56°09' E 012°24'1117.9
2017-Oct-14 01:53N 56°11' E 012°05'918.4
2017-Oct-14 01:23N 56°09' E 011°48'18 1.0
2017-Oct-13 07:09N 56°10' E 012°20'317.8
2017-Oct-13 06:59N 56°09' E 012°25'817.6
2017-Oct-13 06:30N 56°04' E 012°37'816.8
2017-Oct-13 06:00N 55°57' E 012°43'917.4
2017-Oct-13 05:30N 55°48' E 012°43'816.5
2017-Oct-13 05:00N 55°40' E 012°41'510.0
2017-Oct-13 04:30N 55°35' E 012°42'510.9
2017-Oct-13 04:00N 55°29' E 012°42'816.3
2017-Oct-13 03:30N 55°21' E 012°40'714.2
2017-Oct-13 03:00N 55°17' E 012°50'917.5
2017-Oct-13 02:30N 55°15' E 013°05'917.9
2017-Oct-13 01:59N 55°14' E 013°21'1317.5
2017-Oct-13 01:14N 55°14' E 013°44'617.3
2017-Oct-13 00:52N 55°14' E 013°55'717.1
2017-Oct-13 00:28N 55°14' E 014°07'816.3
2017-Oct-12 23:58N 55°16' E 014°21'818.2
2017-Oct-12 23:30N 55°22' E 014°31'817.0
2017-Oct-12 23:00N 55°26' E 014°44'917.3
2017-Oct-12 22:30N 55°27' E 014°59'917.2
2017-Oct-12 22:00N 55°28' E 015°15'916.8
2017-Oct-12 21:30N 55°29' E 015°30'816.6
2017-Oct-12 21:00N 55°29' E 015°44'916.7
2017-Oct-12 20:30N 55°29' E 015°59'816.5
2017-Oct-12 20:00N 55°29' E 016°13'  
Track history (hours):
 
Tides and Currents Weather Stations Pressure Air Temp Water Temp Dewpoint Dewpoint Depression Visibility Wind Speed Wind Dir Waves Ship Positions

Tor Futura

Last reported at 2017-Oct-20 06:05 UTC. Time now 2017-Oct-20 12:19 UTC.
Position N 56°11' E 012°11'.

Length 183.1 m; beam 25.2 m; draft 7.8 m.

Type: Ship. MMSI: 219927000.

Date/timePositionNaut miles runAvg speedWind from/ knotsBaromVisibWave heightAir tempDewpointWater temp
2017-Oct-20 06:05N 56°11' E 012°11'418.5
2017-Oct-20 05:51N 56°11' E 012°19'719.8
2017-Oct-20 05:30N 56°08' E 012°30'1019.5
2017-Oct-20 05:00N 56°01' E 012°41'1019.4
2017-Oct-20 04:30N 55°51' E 012°44'1019.2
2017-Oct-20 04:01N 55°42' E 012°41'815.7
2017-Oct-20 03:30N 55°34' E 012°42'816.3
2017-Oct-20 03:01N 55°26' E 012°42'816.3
2017-Oct-20 02:30N 55°18' E 012°43'918.3
2017-Oct-20 02:00N 55°16' E 012°59'1019.1
2017-Oct-20 01:28N 55°16' E 013°17'919.5
2017-Oct-20 01:00N 55°15' E 013°33'1019.2
2017-Oct-20 00:30N 55°14' E 013°50'1019.2
2017-Oct-20 00:00N 55°14' E 014°07'917.6
2017-Oct-19 23:30N 55°17' E 014°21'917.4
2017-Oct-19 23:00N 55°23' E 014°32'918.3
2017-Oct-19 22:30N 55°27' E 014°47'919.1
2017-Oct-19 22:00N 55°27' E 015°03'1019.2
2017-Oct-19 21:30N 55°28' E 015°20'1319.2
2017-Oct-19 20:48N 55°28' E 015°44'719.2
2017-Oct-19 20:26N 55°29' E 015°57'919.2
2017-Oct-19 19:57N 55°29' E 016°13'919.4
2017-Oct-19 19:30N 55°29' E 016°28'1019.4
2017-Oct-19 19:00N 55°30' E 016°45'1019.5
2017-Oct-19 18:30N 55°31' E 017°02'1019.3
2017-Oct-19 18:00N 55°31' E 017°20'1719.3
2017-Oct-19 17:08N 55°33' E 017°49'2519.3
2017-Oct-19 15:51N 55°36' E 018°32'2119.5
2017-Oct-19 14:45N 55°38' E 019°10'109 4.4
2017-Oct-18 13:58N 55°27' E 015°58'817.3
2017-Oct-18 13:30N 55°26' E 015°44'917.2
2017-Oct-18 13:00N 55°25' E 015°29'917.1
2017-Oct-18 12:30N 55°25' E 015°13'917.2
2017-Oct-18 12:00N 55°24' E 014°58'918.7
2017-Oct-18 11:30N 55°23' E 014°42'918.6
2017-Oct-18 11:00N 55°17' E 014°30'918.1
2017-Oct-18 10:30N 55°11' E 014°18'2418.2
2017-Oct-18 09:11N 55°12' E 013°35'618.1
2017-Oct-18 08:50N 55°13' E 013°25'618.1
2017-Oct-18 08:30N 55°14' E 013°14'918.2
2017-Oct-18 08:00N 55°15' E 012°58'918.1
2017-Oct-18 07:30N 55°17' E 012°43'714.1
2017-Oct-18 07:00N 55°24' E 012°40'815.7
2017-Oct-18 06:30N 55°32' E 012°42'612.2
2017-Oct-18 06:01N 55°38' E 012°42'611.4
2017-Oct-18 05:30N 55°43' E 012°37'1 2.0
2017-Oct-18 04:59N 55°42' E 012°36'0 0.0
2017-Oct-18 04:29N 55°42' E 012°36'0 0.0
2017-Oct-18 04:00N 55°42' E 012°36'1 2.0
2017-Oct-18 03:30N 55°43' E 012°37'511.0
2017-Oct-18 03:01N 55°47' E 012°42'714.8
2017-Oct-18 02:31N 55°55' E 012°39'714.5
2017-Oct-18 02:01N 56°02' E 012°39'713.9
2017-Oct-18 01:31N 56°07' E 012°31'99 4.8
2017-Oct-17 04:59N 55°34' E 009°45'0 0.0
2017-Oct-17 04:29N 55°34' E 009°45'0 0.0
2017-Oct-17 04:00N 55°34' E 009°45'5 6.2
2017-Oct-17 03:10N 55°35' E 009°53'214.1
2017-Oct-17 02:59N 55°37' E 009°57'914.2
2017-Oct-17 02:23N 55°41' E 010°10'713.9
2017-Oct-17 01:55N 55°43' E 010°21'4113.1
2017-Oct-16 22:49N 56°08' E 011°18'1414.0
2017-Oct-16 21:49N 56°09' E 011°43'514.1
2017-Oct-16 21:26N 56°10' E 011°53'614.0
2017-Oct-16 21:00N 56°11' E 012°03'714.0
2017-Oct-16 20:30N 56°11' E 012°16'815.4
2017-Oct-16 19:59N 56°08' E 012°30'714.6
2017-Oct-16 19:30N 56°04' E 012°39'713.1
2017-Oct-16 19:01N 55°57' E 012°43'714.2
2017-Oct-16 18:31N 55°50' E 012°43'713.7
2017-Oct-16 18:01N 55°44' E 012°39'3 5.4
2017-Oct-16 17:31N 55°42' E 012°36'0 0.0
2017-Oct-16 16:59N 55°42' E 012°36'0 0.0
2017-Oct-16 16:29N 55°42' E 012°36'0 0.0
2017-Oct-16 16:00N 55°42' E 012°36'1 2.4
2017-Oct-16 15:30N 55°43' E 012°38'510.8
2017-Oct-16 15:00N 55°38' E 012°42'1110.9
2017-Oct-16 14:00N 55°27' E 012°42'611.6
2017-Oct-16 13:30N 55°21' E 012°40'5 9.6
2017-Oct-16 13:00N 55°18' E 012°46'611.5
2017-Oct-16 12:30N 55°16' E 012°55'611.2
2017-Oct-16 12:00N 55°16' E 013°05'815.5
2017-Oct-16 11:30N 55°16' E 013°19'612.5
2017-Oct-16 11:00N 55°15' E 013°30'612.1
2017-Oct-16 10:31N 55°15' E 013°40'612.2
2017-Oct-16 10:00N 55°14' E 013°51'712.4
2017-Oct-16 09:29N 55°14' E 014°02'612.3
2017-Oct-16 08:58N 55°14' E 014°13'611.5
2017-Oct-16 08:27N 55°17' E 014°22'612.3
2017-Oct-16 07:59N 55°21' E 014°29'612.2
2017-Oct-16 07:30N 55°25' E 014°36'612.4
2017-Oct-16 07:00N 55°27' E 014°47'612.5
2017-Oct-16 06:30N 55°27' E 014°58'612.5
2017-Oct-16 06:00N 55°27' E 015°09'612.9
2017-Oct-16 05:30N 55°28' E 015°20'812.8
2017-Oct-16 04:55N 55°28' E 015°33'513.1
2017-Oct-16 04:30N 55°28' E 015°43'712.9
2017-Oct-16 03:57N 55°29' E 015°55'612.4
2017-Oct-16 03:30N 55°29' E 016°05'611.5
2017-Oct-16 02:59N 55°29' E 016°16'611.4
2017-Oct-16 02:30N 55°30' E 016°25'611.4
2017-Oct-16 01:57N 55°30' E 016°37'611.4
2017-Oct-16 01:27N 55°30' E 016°47'2911.9
2017-Oct-15 23:02N 55°32' E 017°37'212.1
2017-Oct-15 22:51N 55°33' E 017°41'3012.0
2017-Oct-15 20:20N 55°36' E 018°34'712.2
2017-Oct-15 19:47N 55°36' E 018°46'2112.2
2017-Oct-15 18:06N 55°38' E 019°22'412.3
2017-Oct-15 17:48N 55°39' E 019°29'412.3
2017-Oct-15 17:30N 55°39' E 019°35'612.3
2017-Oct-15 17:01N 55°40' E 019°46'712.7
2017-Oct-15 16:27N 55°41' E 019°58'912.7
2017-Oct-15 15:46N 55°42' E 020°13'159 6.5
2017-Oct-14 15:29N 55°26' E 015°34'715.0
2017-Oct-14 15:00N 55°25' E 015°22'714.9
2017-Oct-14 14:30N 55°24' E 015°09'714.9
2017-Oct-14 14:00N 55°24' E 014°56'714.9
2017-Oct-14 13:30N 55°23' E 014°43'714.5
2017-Oct-14 13:00N 55°18' E 014°33'815.1
2017-Oct-14 12:30N 55°13' E 014°23'814.6
2017-Oct-14 11:57N 55°10' E 014°10'2115.1
2017-Oct-14 10:33N 55°12' E 013°33'917.0
2017-Oct-14 10:02N 55°14' E 013°18'016.7
2017-Oct-14 10:00N 55°14' E 013°17'917.1
2017-Oct-14 09:30N 55°14' E 013°02'916.9
2017-Oct-14 09:00N 55°16' E 012°47'714.2
2017-Oct-14 08:30N 55°21' E 012°38'816.1
2017-Oct-14 08:00N 55°29' E 012°41'714.4
2017-Oct-14 07:30N 55°36' E 012°42'612.8
2017-Oct-14 07:00N 55°42' E 012°38'1 2.6
2017-Oct-14 06:30N 55°42' E 012°36'0 0.0
2017-Oct-14 06:00N 55°42' E 012°36'0 0.0
2017-Oct-14 05:30N 55°42' E 012°36'0 0.0
2017-Oct-14 05:00N 55°42' E 012°36'1 1.4
2017-Oct-14 04:30N 55°43' E 012°37'612.5
2017-Oct-14 04:00N 55°48' E 012°42'815.6
2017-Oct-14 03:31N 55°56' E 012°39'815.7
2017-Oct-14 03:01N 56°03' E 012°38'918.7
2017-Oct-14 02:30N 56°09' E 012°24'1117.9
2017-Oct-14 01:53N 56°11' E 012°05'918.4
2017-Oct-14 01:23N 56°09' E 011°48'18 1.0
2017-Oct-13 07:09N 56°10' E 012°20'317.8
2017-Oct-13 06:59N 56°09' E 012°25'817.6
2017-Oct-13 06:30N 56°04' E 012°37'816.8
2017-Oct-13 06:00N 55°57' E 012°43'917.4
2017-Oct-13 05:30N 55°48' E 012°43'816.5
2017-Oct-13 05:00N 55°40' E 012°41'510.0
2017-Oct-13 04:30N 55°35' E 012°42'510.9
2017-Oct-13 04:00N 55°29' E 012°42'816.3
2017-Oct-13 03:30N 55°21' E 012°40'714.2
2017-Oct-13 03:00N 55°17' E 012°50'917.5
2017-Oct-13 02:30N 55°15' E 013°05'917.9
2017-Oct-13 01:59N 55°14' E 013°21'1317.5
2017-Oct-13 01:14N 55°14' E 013°44'617.3
2017-Oct-13 00:52N 55°14' E 013°55'717.1
2017-Oct-13 00:28N 55°14' E 014°07'816.3
2017-Oct-12 23:58N 55°16' E 014°21'818.2
2017-Oct-12 23:30N 55°22' E 014°31'817.0
2017-Oct-12 23:00N 55°26' E 014°44'917.3
2017-Oct-12 22:30N 55°27' E 014°59'917.2
2017-Oct-12 22:00N 55°28' E 015°15'916.8
2017-Oct-12 21:30N 55°29' E 015°30'816.6
2017-Oct-12 21:00N 55°29' E 015°44'916.7
2017-Oct-12 20:30N 55°29' E 015°59'816.5
2017-Oct-12 20:00N 55°29' E 016°13'  

Dump ship's entire track history